Lake Charles, LA

12:46 AM CST on November 26, 2014 (GMT -0600)
Bayouwood | Change Station
CLOSE
Current Station
Personal Weather Station
Location: Lake Charles, LA
Elevation: 15 ft
Nearby Weather Stations

Elev 15 ft 30.18 °N, 93.24 °W | Updated 49 seconds ago

Clear
Clear
39.9 °F
Feels Like 40 °F
N
0.0
Wind Variable Wind from NNW
Gusts 0.0 mph

Today
High -- | Low -- °F
--% Chance of Precip.
Yesterday
High -- | Low -- °F
Precip. -- in
6:47 AM 5:12 PM
Waxing Crescent, 17% visible
Pressure 30.23 in
Visibility 10.0 miles
Clouds Clear
Windchill 40 °F
Dew Point 38 °F
Humidity 92%
Rainfall 0.00 in
Snow Depth Not available.
UV 0 out of 12
Pollen 2.80 out of 12
Air Quality Not available.
Flu Activity Not available.
METAR KCWF 260630Z AUTO 00000KT 10SM CLR 03/03 A3023 RMK AO2 T00400034

More Conditions Fewer Conditions

Pressure 30.23 in
Visibility 10.0 miles
Clouds Clear
Windchill 40 °F
Dew Point 38 °F
Humidity 92%
Rainfall 0.00 in
Snow Depth Not available.
UV 0 out of 12
Pollen 2.80 out of 12
Air Quality Not available.
Flu Activity Not available.
METAR KCWF 260630Z AUTO 00000KT 10SM CLR 03/03 A3023 RMK AO2 T00400034

More Conditions Fewer Conditions

10-Day Weather Forecast

Almanac

Astronomy

Nov. 26, 2014 Rise Set
Actual Time
Civil Twilight
Nautical Twilight
Astronomical Twilight
Moon
Length of Visible Light
Length of Day
Tomorrow will be .
, % of the Moon is Illuminated

Today's Extremes

State Highs State Lows

Community

WunderPhotos

Upload Photos

1,773,691 photos uploaded!

WunderBlogs® & News

Nearby

Air Quality

  Air Quality AQ Index Pollutant
Not available.

Snow Depth

Station Depth Elevation

Earthquake Activity

City Distance Mag. Time & Date
Minimum magnitude displayed is 2.5.

Coastal Water Temperatures

Place Temperature

Nearby Weather Stations